Time;durP1;ratioP1;P1;durP2;ratioP2;P2;SDS_P1;SDS_P2;PMS_P1;PMS_P2;Temp;Humidity;BMP_temperature;BMP_pressure;BME280_temperature;BME280_humidity;BME280_pressure;Samples;Min_cycle;Max_cycle;Signal;HPM_P1;HPM_P2
2022/01/31 00:01:10;;;;;;;35.90;6.57;;;;;;;;;;5094276;28;20100;-72
2022/01/31 00:03:35;;;;;;;34.55;7.47;;;3.90;99.90;;;;;;5111577;28;20043;-71
2022/01/31 00:06:03;;;;;;;30.17;6.75;;;4.10;99.90;;;;;;5111903;28;20039;-72
2022/01/31 00:08:30;;;;;;;33.90;6.93;;;3.80;99.90;;;;;;5110858;28;20075;-72
2022/01/31 00:10:56;;;;;;;37.97;7.10;;;3.70;99.90;;;;;;5093923;28;20042;-72
2022/01/31 00:13:33;;;;;;;32.95;7.18;;;3.70;99.90;;;;;;5110684;28;20047;-72
2022/01/31 00:16:01;;;;;;;31.63;6.70;;;;;;;;;;5110644;28;20047;-72
2022/01/31 00:18:27;;;;;;;31.60;6.95;;;4.10;99.90;;;;;;5093523;28;20569;-72
2022/01/31 00:20:53;;;;;;;40.35;7.95;;;4.20;99.90;;;;;;5093614;28;20122;-72
2022/01/31 00:23:19;;;;;;;33.60;8.23;;;3.90;99.90;;;;;;5110462;28;20105;-72
2022/01/31 00:25:45;;;;;;;32.03;7.63;;;;;;;;;;5110472;28;20126;-72
2022/01/31 00:28:10;;;;;;;33.20;7.50;;;4.00;99.90;;;;;;5110908;28;20059;-72
2022/01/31 00:30:36;;;;;;;29.50;7.68;;;3.90;99.90;;;;;;5128313;27;20040;-72
2022/01/31 00:33:02;;;;;;;30.27;6.97;;;4.20;99.90;;;;;;5093527;28;20538;-72
2022/01/31 00:35:29;;;;;;;27.92;7.38;;;;;;;;;;5110530;28;20399;-72
2022/01/31 00:37:55;;;;;;;25.77;7.13;;;;;;;;;;5110460;28;20051;-72
2022/01/31 00:40:20;;;;;;;28.83;7.28;;;4.90;99.90;;;;;;5110340;28;20044;-72
2022/01/31 00:42:46;;;;;;;27.73;7.25;;;4.00;99.90;;;;;;5110400;28;20108;-72
2022/01/31 00:45:25;;;;;;;30.05;7.40;;;;;;;;;;5110568;28;20062;-72
2022/01/31 00:48:00;;;;;;;34.13;7.63;;;4.20;99.90;;;;;;5110826;28;20110;-72
2022/01/31 00:50:28;;;;;;;28.17;7.70;;;4.20;99.90;;;;;;5111437;28;20055;-72
2022/01/31 00:52:55;;;;;;;27.85;8.00;;;4.00;99.90;;;;;;5110312;28;20047;-72
2022/01/31 00:55:21;;;;;;;30.00;7.57;;;4.90;99.90;;;;;;5110164;28;20052;-72
2022/01/31 00:57:47;;;;;;;22.58;7.03;;;4.20;99.90;;;;;;5109923;28;20130;-71
2022/01/31 01:00:14;;;;;;;26.17;7.80;;;3.90;99.90;;;;;;5109554;28;20040;-72
2022/01/31 01:02:40;;;;;;;30.50;7.95;;;4.30;99.90;;;;;;5109874;28;20078;-72
2022/01/31 01:05:10;;;;;;;26.65;7.35;;;;;;;;;;5109701;28;20047;-72
2022/01/31 01:07:36;;;;;;;27.90;7.55;;;4.20;99.90;;;;;;5109421;28;20052;-72
2022/01/31 01:10:03;;;;;;;27.20;7.43;;;4.20;99.90;;;;;;5109819;28;20452;-72
2022/01/31 01:12:28;;;;;;;29.83;7.65;;;3.90;99.90;;;;;;5109960;28;20050;-72
2022/01/31 01:14:55;;;;;;;24.73;7.82;;;;;;;;;;5109378;28;20040;-72
2022/01/31 01:17:21;;;;;;;28.33;6.97;;;4.20;99.90;;;;;;5108036;28;20079;-72
2022/01/31 01:19:48;;;;;;;29.38;7.93;;;;;;;;;;5107947;28;20074;-72
2022/01/31 01:22:14;;;;;;;25.77;8.50;;;;;;;;;;5108177;28;20410;-71
2022/01/31 01:24:40;;;;;;;31.67;8.30;;;;;;;;;;5108405;28;20040;-72
2022/01/31 01:27:08;;;;;;;26.95;8.52;;;4.00;99.90;;;;;;5091275;28;20053;-71
2022/01/31 01:29:33;;;;;;;29.60;8.63;;;4.40;99.90;;;;;;5107834;28;20100;-71
2022/01/31 01:31:59;;;;;;;28.00;8.43;;;;;;;;;;5108166;28;20437;-72
2022/01/31 01:34:26;;;;;;;31.33;8.70;;;;;;;;;;5108288;28;20038;-72
2022/01/31 01:36:53;;;;;;;31.00;9.18;;;4.10;99.90;;;;;;5107686;28;20043;-72
2022/01/31 01:39:20;;;;;;;31.35;9.02;;;4.30;99.90;;;;;;5108061;28;20051;-70
2022/01/31 01:41:46;;;;;;;30.65;10.07;;;;;;;;;;5108035;28;20088;-70
2022/01/31 01:44:12;;;;;;;30.45;10.35;;;;;;;;;;5108851;28;20122;-70
2022/01/31 01:46:38;;;;;;;30.83;11.80;;;4.10;99.90;;;;;;5109699;28;20051;-70
2022/01/31 01:49:04;;;;;;;26.52;11.27;;;3.60;99.90;;;;;;5126101;28;20483;-70
2022/01/31 01:51:30;;;;;;;31.77;12.63;;;;;;;;;;5092073;28;20050;-70
2022/01/31 01:53:59;;;;;;;32.85;13.50;;;4.00;99.90;;;;;;5109186;28;20043;-69
2022/01/31 01:56:25;;;;;;;32.00;13.15;;;4.00;99.90;;;;;;5109575;28;20391;-68
2022/01/31 01:58:50;;;;;;;33.58;14.85;;;3.40;99.90;;;;;;5126391;28;20044;-68
2022/01/31 02:01:17;;;;;;;35.72;14.63;;;;;;;;;;5109174;28;20047;-69
2022/01/31 02:03:43;;;;;;;34.17;15.60;;;;;;;;;;5108706;28;20043;-68
2022/01/31 02:06:10;;;;;;;35.45;15.63;;;;;;;;;;5092412;28;20062;-68
2022/01/31 02:08:41;;;;;;;38.35;16.08;;;;;;;;;;5109195;28;20059;-68
2022/01/31 02:11:12;;;;;;;33.97;16.05;;;3.60;99.90;;;;;;5109222;28;20047;-69
2022/01/31 02:13:38;;;;;;;33.50;15.93;;;3.10;99.90;;;;;;5112086;28;20487;-69
2022/01/31 02:16:06;;;;;;;38.50;17.63;;;3.50;99.90;;;;;;5096304;28;20131;-69
2022/01/31 02:18:33;;;;;;;44.65;17.70;;;;;;;;;;5096351;28;20108;-70
2022/01/31 02:20:59;;;;;;;42.50;16.48;;;3.40;99.90;;;;;;5114416;28;20040;-69
2022/01/31 02:23:27;;;;;;;45.70;18.70;;;3.40;99.90;;;;;;5113012;28;20051;-70
2022/01/31 02:25:57;;;;;;;40.42;18.40;;;3.20;99.90;;;;;;5112909;28;20479;-70
2022/01/31 02:28:27;;;;;;;41.80;18.63;;;3.20;99.90;;;;;;5112859;28;20066;-69
2022/01/31 02:30:54;;;;;;;38.33;17.80;;;3.80;99.90;;;;;;5112653;28;20048;-69
2022/01/31 02:33:20;;;;;;;45.85;18.95;;;;;;;;;;5112738;28;20096;-69
2022/01/31 02:35:47;;;;;;;39.35;18.55;;;3.40;99.90;;;;;;5113100;28;20058;-70
2022/01/31 02:38:13;;;;;;;38.80;18.20;;;2.70;99.90;;;;;;5113119;28;20510;-70
2022/01/31 02:40:40;;;;;;;40.58;17.13;;;3.30;99.90;;;;;;5113059;28;20124;-70
2022/01/31 02:43:06;;;;;;;45.72;19.58;;;3.50;99.90;;;;;;5113071;28;20044;-70
2022/01/31 02:45:32;;;;;;;40.20;20.23;;;3.30;99.90;;;;;;5112839;28;20054;-69
2022/01/31 02:48:01;;;;;;;40.08;19.58;;;1.80;99.90;;;;;;5112645;28;20126;-70
2022/01/31 02:50:27;;;;;;;38.13;19.20;;;3.60;99.90;;;;;;5113010;28;20035;-70
2022/01/31 02:53:09;;;;;;;36.28;19.00;;;3.30;99.90;;;;;;5095965;28;20165;-69
2022/01/31 02:55:35;;;;;;;39.47;19.48;;;;;;;;;;5096016;28;20039;-70
2022/01/31 02:58:01;;;;;;;40.60;19.88;;;3.30;99.90;;;;;;5095756;28;20048;-69
2022/01/31 03:00:28;;;;;;;41.42;21.40;;;4.20;99.90;;;;;;5112335;28;20039;-70
2022/01/31 03:02:54;;;;;;;42.92;20.40;;;;;;;;;;5112094;28;20058;-69
2022/01/31 03:05:21;;;;;;;26.65;17.63;;;;;;;;;;5112205;28;20048;-70
2022/01/31 03:07:47;;;;;;;25.65;15.90;;;;;;;;;;5111983;28;20039;-70
2022/01/31 03:10:13;;;;;;;25.38;15.57;;;;;;;;;;5112087;28;20043;-69
2022/01/31 03:12:38;;;;;;;22.58;14.15;;;3.40;99.90;;;;;;5112336;28;20390;-69
2022/01/31 03:15:04;;;;;;;22.83;14.40;;;4.20;99.90;;;;;;5111854;28;20130;-69
2022/01/31 03:17:30;;;;;;;23.42;14.18;;;2.70;99.90;;;;;;5112027;28;20055;-70
2022/01/31 03:19:56;;;;;;;23.60;15.80;;;3.50;99.90;;;;;;5113104;28;20059;-70
2022/01/31 03:22:23;;;;;;;25.90;14.88;;;3.10;99.90;;;;;;5112407;28;20054;-70
2022/01/31 03:24:50;;;;;;;25.70;15.95;;;3.40;99.90;;;;;;5112226;28;20086;-70
2022/01/31 03:27:16;;;;;;;21.42;15.43;;;3.20;99.90;;;;;;5111496;28;20042;-69
2022/01/31 03:29:42;;;;;;;24.58;14.43;;;2.90;99.90;;;;;;5112005;28;20051;-69
2022/01/31 03:32:08;;;;;;;20.02;13.90;;;3.10;99.90;;;;;;5112220;28;20050;-70
2022/01/31 03:34:34;;;;;;;23.30;14.30;;;;;;;;;;5111642;28;20122;-70
2022/01/31 03:36:59;;;;;;;20.63;14.40;;;3.90;99.90;;;;;;5094980;28;20047;-69
2022/01/31 03:39:25;;;;;;;22.77;15.23;;;3.00;99.90;;;;;;5111831;28;20095;-69
2022/01/31 03:41:51;;;;;;;21.70;14.70;;;3.30;99.90;;;;;;5094614;28;20055;-70
2022/01/31 03:44:16;;;;;;;22.60;16.17;;;3.60;99.90;;;;;;5111357;28;20059;-69
2022/01/31 03:46:42;;;;;;;22.52;16.20;;;;;;;;;;5128534;27;20047;-69
2022/01/31 03:49:11;;;;;;;24.65;16.88;;;2.20;99.90;;;;;;5111363;28;20046;-69
2022/01/31 03:51:37;;;;;;;24.95;17.45;;;;;;;;;;5094264;28;20043;-69
2022/01/31 03:54:04;;;;;;;26.35;15.88;;;3.70;99.90;;;;;;5111365;28;20399;-69
2022/01/31 03:56:30;;;;;;;25.75;17.02;;;3.70;99.90;;;;;;5112246;28;20047;-69
2022/01/31 03:58:56;;;;;;;29.23;17.58;;;3.40;99.90;;;;;;5111366;28;20536;-70
2022/01/31 04:01:26;;;;;;;28.83;19.35;;;3.40;99.90;;;;;;5128541;27;20039;-69
2022/01/31 04:03:55;;;;;;;29.35;17.52;;;;;;;;;;5112963;28;20077;-69
2022/01/31 04:06:23;;;;;;;33.50;18.85;;;3.60;99.90;;;;;;5111480;28;20096;-69
2022/01/31 04:08:49;;;;;;;32.42;19.88;;;3.70;99.90;;;;;;5111070;28;20445;-69
2022/01/31 04:11:15;;;;;;;30.02;17.52;;;3.90;99.90;;;;;;5094226;28;20048;-69
2022/01/31 04:13:41;;;;;;;39.13;20.75;;;3.20;99.90;;;;;;5111073;28;20080;-69
2022/01/31 04:16:06;;;;;;;31.88;19.30;;;3.50;99.90;;;;;;5111078;28;20130;-69
2022/01/31 04:18:32;;;;;;;42.63;21.23;;;3.80;99.90;;;;;;5111227;28;20058;-70
2022/01/31 04:20:58;;;;;;;42.55;19.90;;;4.10;99.90;;;;;;5111303;28;20052;-70
2022/01/31 04:23:27;;;;;;;39.67;17.92;;;4.10;99.90;;;;;;5111462;28;20074;-69
2022/01/31 04:25:55;;;;;;;41.85;18.08;;;4.20;99.90;;;;;;5111655;28;20407;-70
2022/01/31 04:28:31;;;;;;;44.78;16.25;;;4.10;99.90;;;;;;5110743;28;20501;-69
2022/01/31 04:31:01;;;;;;;41.50;16.02;;;;;;;;;;5110775;28;20111;-69
2022/01/31 04:33:28;;;;;;;42.10;14.80;;;4.40;99.90;;;;;;5093589;28;20046;-69
2022/01/31 04:35:54;;;;;;;34.00;12.90;;;4.40;99.90;;;;;;5109862;28;20092;-72
2022/01/31 04:38:21;;;;;;;35.63;11.63;;;4.50;99.90;;;;;;5110952;28;20051;-72
2022/01/31 04:40:47;;;;;;;42.30;11.27;;;4.50;99.90;;;;;;5110423;28;20054;-72
2022/01/31 04:43:13;;;;;;;33.38;8.18;;;4.50;99.90;;;;;;5110440;28;20044;-73
2022/01/31 04:45:46;;;;;;;34.40;7.72;;;4.70;99.90;;;;;;5110763;28;20395;-72
2022/01/31 04:48:12;;;;;;;27.00;6.60;;;;;;;;;;5093884;28;20140;-71
2022/01/31 04:50:38;;;;;;;41.13;6.47;;;4.50;99.90;;;;;;5110414;28;20039;-72
2022/01/31 04:53:04;;;;;;;37.22;5.90;;;4.50;99.90;;;;;;5093590;28;20039;-72
2022/01/31 04:55:30;;;;;;;37.03;5.55;;;;;;;;;;5111675;28;20126;-72
2022/01/31 04:57:57;;;;;;;32.58;5.63;;;5.00;99.90;;;;;;5109653;28;20047;-72
2022/01/31 05:00:23;;;;;;;33.53;5.57;;;5.40;99.90;;;;;;5110379;28;20051;-72
2022/01/31 05:02:49;;;;;;;33.28;5.22;;;5.20;99.90;;;;;;5109928;28;20126;-73
2022/01/31 05:05:15;;;;;;;34.95;4.95;;;;;;;;;;5093136;28;20130;-72
2022/01/31 05:07:41;;;;;;;26.70;4.65;;;;;;;;;;5110059;28;20079;-72
2022/01/31 05:10:07;;;;;;;33.55;5.45;;;5.20;99.90;;;;;;5109834;28;20256;-72
2022/01/31 05:12:33;;;;;;;30.67;5.22;;;;;;;;;;5092484;28;20043;-72
2022/01/31 05:14:59;;;;;;;23.35;4.30;;;;;;;;;;5109875;28;20035;-72
2022/01/31 05:17:25;;;;;;;26.77;4.13;;;5.20;99.90;;;;;;5109255;28;20092;-72
2022/01/31 05:19:51;;;;;;;29.55;5.07;;;;;;;;;;5108469;28;20046;-72
2022/01/31 05:22:17;;;;;;;34.72;5.35;;;;;;;;;;5091451;28;20079;-72
2022/01/31 05:24:44;;;;;;;29.85;5.25;;;;;;;;;;5108286;28;20046;-72
2022/01/31 05:27:10;;;;;;;29.98;4.78;;;;;;;;;;5108320;28;20162;-72
2022/01/31 05:29:39;;;;;;;33.97;4.78;;;;;;;;;;5108103;28;20039;-72
2022/01/31 05:32:05;;;;;;;40.40;5.65;;;5.10;99.90;;;;;;5108257;28;20047;-72
2022/01/31 05:34:31;;;;;;;37.28;5.30;;;;;;;;;;5126589;27;20127;-72
2022/01/31 05:36:58;;;;;;;30.20;4.95;;;;;;;;;;5092461;28;20051;-72
2022/01/31 05:39:25;;;;;;;28.10;4.45;;;;;;;;;;5092489;28;20040;-72
2022/01/31 05:41:51;;;;;;;36.80;4.90;;;4.80;99.90;;;;;;5109633;28;20047;-71
2022/01/31 05:44:17;;;;;;;25.73;4.65;;;;;;;;;;5109371;28;20411;-72
2022/01/31 05:46:44;;;;;;;35.83;5.05;;;5.00;99.90;;;;;;5108844;28;20126;-71
2022/01/31 05:49:10;;;;;;;21.77;4.43;;;;;;;;;;5109375;28;20058;-72
2022/01/31 05:52:04;;;;;;;21.65;3.58;;;5.10;99.90;;;;;;5109996;28;20043;-72
2022/01/31 05:54:38;;;;;;;15.35;2.83;;;5.10;99.90;;;;;;5109992;28;20042;-71
2022/01/31 05:57:06;;;;;;;11.75;2.22;;;5.10;99.90;;;;;;5109703;28;20039;-72
2022/01/31 05:59:32;;;;;;;10.43;1.92;;;5.00;99.90;;;;;;5109757;28;20036;-71
2022/01/31 06:01:58;;;;;;;11.15;1.98;;;;;;;;;;5109494;28;20055;-73
2022/01/31 06:04:28;;;;;;;8.63;1.90;;;4.60;99.90;;;;;;5093125;28;20387;-73
2022/01/31 06:06:54;;;;;;;8.80;1.73;;;5.20;99.90;;;;;;5109765;28;20083;-72
2022/01/31 06:09:19;;;;;;;9.32;1.85;;;4.70;99.90;;;;;;5109250;28;20083;-72
2022/01/31 06:11:48;;;;;;;13.57;2.05;;;4.50;99.90;;;;;;5092443;28;20036;-72
2022/01/31 06:14:15;;;;;;;11.32;2.00;;;4.90;99.90;;;;;;5109836;28;20116;-72
2022/01/31 06:16:41;;;;;;;7.43;1.70;;;4.80;99.90;;;;;;5109630;28;20060;-72
2022/01/31 06:19:07;;;;;;;9.50;2.08;;;4.40;99.90;;;;;;5092855;28;20135;-71
2022/01/31 06:21:36;;;;;;;6.45;1.77;;;5.20;99.90;;;;;;5109458;28;20040;-72
2022/01/31 06:24:04;;;;;;;10.18;2.03;;;5.20;99.90;;;;;;5096897;28;20737;-72
2022/01/31 06:26:30;;;;;;;10.98;2.17;;;4.70;99.90;;;;;;5108993;28;20036;-72
2022/01/31 06:28:58;;;;;;;9.98;2.25;;;4.60;99.90;;;;;;5091513;28;20038;-72
2022/01/31 06:31:23;;;;;;;11.00;2.13;;;4.50;99.90;;;;;;5104519;28;20128;-72
2022/01/31 06:33:49;;;;;;;11.77;2.15;;;4.60;99.90;;;;;;5120864;28;20487;-72
2022/01/31 06:36:15;;;;;;;11.38;2.35;;;;;;;;;;5109027;28;20486;-71
2022/01/31 06:38:41;;;;;;;13.10;2.28;;;;;;;;;;5108834;28;20103;-72
2022/01/31 06:41:11;;;;;;;14.40;2.72;;;5.20;99.90;;;;;;5091726;28;20040;-72
2022/01/31 06:43:37;;;;;;;15.05;2.50;;;;;;;;;;5099222;28;20048;-72
2022/01/31 06:46:03;;;;;;;10.93;2.28;;;;;;;;;;5102941;28;20051;-72
2022/01/31 06:48:29;;;;;;;14.23;2.65;;;;;;;;;;5107291;28;20051;-72
2022/01/31 06:50:56;;;;;;;14.00;2.67;;;;;;;;;;5105313;28;20088;-72
2022/01/31 06:53:26;;;;;;;17.45;2.83;;;4.40;99.90;;;;;;5105853;28;20066;-72
2022/01/31 06:55:53;;;;;;;16.13;2.83;;;4.60;99.90;;;;;;5106145;28;20038;-72
2022/01/31 06:58:19;;;;;;;18.77;3.17;;;4.80;99.90;;;;;;5104619;28;20410;-71
2022/01/31 07:00:45;;;;;;;21.85;3.20;;;;;;;;;;5092701;28;20049;-71
2022/01/31 07:03:13;;;;;;;20.00;3.00;;;;;;;;;;5109771;28;20036;-72
2022/01/31 07:05:40;;;;;;;22.35;3.15;;;4.60;99.90;;;;;;5106981;28;20040;-72
2022/01/31 07:08:06;;;;;;;30.00;3.80;;;4.80;99.90;;;;;;5091280;28;20124;-72
2022/01/31 07:10:33;;;;;;;24.60;3.22;;;;;;;;;;5093986;28;20479;-72
2022/01/31 07:13:01;;;;;;;24.13;3.55;;;5.20;99.90;;;;;;5093925;28;20028;-72
2022/01/31 07:15:27;;;;;;;22.42;3.40;;;4.70;99.90;;;;;;5111325;28;20112;-73
2022/01/31 07:17:54;;;;;;;27.50;4.05;;;;;;;;;;5093386;28;20491;-72
2022/01/31 07:20:23;;;;;;;27.33;3.92;;;;;;;;;;5111123;28;20055;-73
2022/01/31 07:22:57;;;;;;;27.05;3.80;;;4.60;99.90;;;;;;5110808;28;20784;-73
2022/01/31 07:25:34;;;;;;;24.80;3.75;;;4.80;99.90;;;;;;5111641;28;20048;-72
2022/01/31 07:28:08;;;;;;;20.23;3.30;;;4.70;99.90;;;;;;5112103;28;20043;-71
2022/01/31 07:30:35;;;;;;;25.77;3.55;;;4.80;99.90;;;;;;5110434;28;20046;-71
2022/01/31 07:33:01;;;;;;;20.90;3.33;;;4.80;99.90;;;;;;5110308;28;20538;-70
2022/01/31 07:35:27;;;;;;;17.35;2.85;;;4.90;99.90;;;;;;5110649;28;20043;-69
2022/01/31 07:37:53;;;;;;;17.00;3.05;;;;;;;;;;5092881;28;20372;-71
2022/01/31 07:40:19;;;;;;;13.82;2.80;;;4.80;99.90;;;;;;5110850;28;20157;-69
2022/01/31 07:42:45;;;;;;;20.75;3.03;;;;;;;;;;5110610;28;20499;-70
2022/01/31 07:45:11;;;;;;;13.57;2.55;;;4.80;99.90;;;;;;5110929;28;20503;-70
2022/01/31 07:47:38;;;;;;;11.75;2.33;;;4.80;99.90;;;;;;5110990;28;20051;-70
2022/01/31 07:50:04;;;;;;;14.63;2.60;;;4.70;99.90;;;;;;5111020;28;20046;-70
2022/01/31 07:52:31;;;;;;;9.10;2.00;;;;;;;;;;5110896;28;20039;-69
2022/01/31 07:55:00;;;;;;;13.88;2.50;;;4.90;99.90;;;;;;5110737;28;20043;-69
2022/01/31 07:57:26;;;;;;;13.45;2.70;;;4.80;99.90;;;;;;5110777;28;20070;-69
2022/01/31 07:59:53;;;;;;;14.43;2.60;;;4.80;99.90;;;;;;5093732;28;20196;-69
2022/01/31 08:02:19;;;;;;;12.07;2.40;;;4.70;99.90;;;;;;5093869;28;20479;-70
2022/01/31 08:04:45;;;;;;;10.15;2.28;;;;;;;;;;5110188;28;20048;-69
2022/01/31 08:07:12;;;;;;;10.63;2.20;;;4.80;99.90;;;;;;5092751;28;20480;-70
2022/01/31 08:09:38;;;;;;;15.35;2.45;;;4.80;99.90;;;;;;5088966;28;20044;-69
2022/01/31 08:12:06;;;;;;;19.10;2.67;;;4.90;99.90;;;;;;5089418;28;20036;-70
2022/01/31 08:14:32;;;;;;;16.33;2.55;;;4.90;99.90;;;;;;5090020;28;20112;-70
2022/01/31 08:16:57;;;;;;;16.98;2.67;;;5.10;99.90;;;;;;5089666;28;20067;-69
2022/01/31 08:19:23;;;;;;;16.40;2.95;;;4.80;99.90;;;;;;5089681;28;20052;-69
2022/01/31 08:21:49;;;;;;;30.42;3.50;;;4.90;99.90;;;;;;5089608;28;20051;-70
2022/01/31 08:24:16;;;;;;;27.13;4.10;;;;;;;;;;5073088;28;20151;-70
2022/01/31 08:26:42;;;;;;;25.17;4.03;;;4.90;99.90;;;;;;5072325;28;20048;-69
2022/01/31 08:29:28;;;;;;;23.20;3.17;;;4.90;99.90;;;;;;5090026;28;20059;-70
2022/01/31 08:31:56;;;;;;;21.88;3.05;;;4.90;99.90;;;;;;5095576;28;20043;-69
2022/01/31 08:35:47;;;;;;;22.00;3.05;;;5.10;99.90;;;;;;5109221;28;20122;-70
2022/01/31 08:37:14;;;;;;;21.65;3.28;;;4.90;99.90;;;;;;5108737;28;20086;-69
2022/01/31 08:39:40;;;;;;;19.00;3.10;;;;;;;;;;5109683;28;20178;-70
2022/01/31 08:42:06;;;;;;;23.92;3.38;;;;;;;;;;5092788;28;20632;-70
2022/01/31 08:44:32;;;;;;;16.52;3.20;;;4.90;99.90;;;;;;5109076;28;20036;-70
2022/01/31 08:46:58;;;;;;;17.40;3.28;;;;;;;;;;5108898;28;20046;-70
2022/01/31 08:49:24;;;;;;;21.67;3.15;;;5.10;99.90;;;;;;5109383;28;20174;-70
2022/01/31 08:51:50;;;;;;;20.60;3.25;;;5.20;99.90;;;;;;5109003;28;20534;-70
2022/01/31 08:54:16;;;;;;;17.25;3.22;;;4.90;99.90;;;;;;5109244;28;20039;-70
2022/01/31 08:56:47;;;;;;;32.65;4.20;;;5.40;99.90;;;;;;5109301;28;20425;-70
2022/01/31 08:59:18;;;;;;;19.17;3.55;;;5.00;99.90;;;;;;5109207;28;20058;-70
2022/01/31 09:01:52;;;;;;;24.02;3.38;;;5.80;99.90;;;;;;5092134;28;20039;-71
2022/01/31 09:04:33;;;;;;;25.02;3.75;;;5.40;99.90;;;;;;5109673;28;20512;-70
2022/01/31 09:06:59;;;;;;;23.05;3.60;;;5.50;99.90;;;;;;5092818;28;20035;-70
2022/01/31 09:09:25;;;;;;;21.52;4.20;;;;;;;;;;5092441;28;20050;-70
2022/01/31 09:11:51;;;;;;;28.25;3.92;;;;;;;;;;5108771;28;20057;-70
2022/01/31 09:14:17;;;;;;;24.55;3.80;;;;;;;;;;5108961;28;20079;-70
2022/01/31 09:16:43;;;;;;;16.83;3.30;;;5.80;99.90;;;;;;5091290;28;20136;-70
2022/01/31 09:19:10;;;;;;;15.90;3.03;;;5.70;99.90;;;;;;5109123;28;20055;-70
2022/01/31 09:21:36;;;;;;;21.30;3.42;;;6.20;99.90;;;;;;5108715;28;20055;-70
2022/01/31 09:24:03;;;;;;;16.77;3.40;;;;;;;;;;5108945;28;20051;-69
2022/01/31 09:26:29;;;;;;;16.75;2.97;;;6.10;99.90;;;;;;5108482;28;20047;-69
2022/01/31 09:28:55;;;;;;;15.88;3.10;;;;;;;;;;5091790;28;20048;-70
2022/01/31 09:31:22;;;;;;;13.77;2.90;;;6.20;99.90;;;;;;5091493;28;20047;-70
2022/01/31 09:33:50;;;;;;;15.32;3.00;;;6.30;99.90;;;;;;5107900;28;20046;-69
2022/01/31 09:36:16;;;;;;;11.43;2.60;;;;;;;;;;5091540;28;20139;-69
2022/01/31 09:38:42;;;;;;;12.02;3.08;;;6.60;99.90;;;;;;5090814;28;20491;-69
2022/01/31 09:41:13;;;;;;;12.70;2.22;;;5.80;99.90;;;;;;5108552;28;20535;-69
2022/01/31 09:48:43;;;;;;;12.75;2.72;;;;;;;;;;5108175;28;20044;-70
2022/01/31 09:51:19;;;;;;;10.15;2.40;;;6.40;99.90;;;;;;5108819;28;20040;-70
2022/01/31 09:53:53;;;;;;;10.85;2.33;;;6.50;99.90;;;;;;5108745;28;20395;-70
2022/01/31 09:56:22;;;;;;;13.55;2.85;;;6.40;99.90;;;;;;5108682;28;20071;-69
2022/01/31 09:58:50;;;;;;;14.32;2.30;;;7.10;99.90;;;;;;5091389;28;20060;-69
2022/01/31 10:01:20;;;;;;;12.07;2.13;;;6.80;99.90;;;;;;5108992;28;20427;-69
2022/01/31 10:04:01;;;;;;;11.00;2.78;;;6.80;99.90;;;;;;5108548;28;20425;-69
2022/01/31 10:06:35;;;;;;;11.52;2.40;;;6.90;99.90;;;;;;5108909;28;20047;-69
2022/01/31 10:09:11;;;;;;;13.70;2.38;;;7.50;99.90;;;;;;5089386;28;20151;-69
2022/01/31 10:12:10;;;;;;;10.40;2.45;;;7.00;99.90;;;;;;5088160;28;20043;-69
2022/01/31 10:17:37;;;;;;;12.02;2.42;;;6.90;99.90;;;;;;5087708;28;20098;-70
2022/01/31 10:20:14;;;;;;;11.02;2.30;;;6.90;99.90;;;;;;5070978;28;20130;-70
2022/01/31 10:22:42;;;;;;;14.13;2.40;;;6.90;99.90;;;;;;5107085;28;20043;-71
2022/01/31 10:25:20;;;;;;;16.27;3.05;;;7.20;99.90;;;;;;5107681;28;20458;-71
2022/01/31 10:27:47;;;;;;;11.88;2.42;;;6.90;99.90;;;;;;5090676;28;20054;-71
2022/01/31 10:30:18;;;;;;;15.85;2.40;;;6.90;99.90;;;;;;5125452;27;20039;-71
2022/01/31 10:32:46;;;;;;;14.02;2.38;;;7.00;99.90;;;;;;5108163;28;20047;-71
2022/01/31 10:35:18;;;;;;;14.85;2.55;;;7.30;99.90;;;;;;5112445;28;20135;-71
2022/01/31 10:37:44;;;;;;;12.63;2.60;;;7.80;99.90;;;;;;5111384;28;20043;-71
2022/01/31 10:46:08;;;;;;;19.00;2.30;;;7.00;99.90;;;;;;5111440;28;20495;-71
2022/01/31 10:56:56;;;;;;;14.23;2.28;;;7.30;99.90;;;;;;5110931;28;20126;-69
2022/01/31 10:59:43;;;;;;;9.13;2.28;;;7.50;99.90;;;;;;5094505;28;20112;-69
2022/01/31 11:02:16;;;;;;;11.20;2.00;;;7.60;99.90;;;;;;5111524;28;20462;-70
2022/01/31 11:04:44;;;;;;;14.05;2.17;;;7.50;99.90;;;;;;5111244;28;20083;-70
2022/01/31 11:07:18;;;;;;;11.48;2.50;;;7.50;99.90;;;;;;5106328;28;20083;-69
2022/01/31 11:09:45;;;;;;;12.55;2.63;;;7.40;99.90;;;;;;5090757;28;20083;-70
2022/01/31 11:12:13;;;;;;;9.73;2.47;;;7.80;99.90;;;;;;5091231;28;20043;-69
2022/01/31 11:14:42;;;;;;;12.45;2.40;;;7.30;99.90;;;;;;5091115;28;20043;-70
2022/01/31 11:17:10;;;;;;;11.13;2.45;;;7.30;99.90;;;;;;5108389;28;20141;-70
2022/01/31 11:19:37;;;;;;;14.52;2.38;;;7.50;99.90;;;;;;5103479;28;20043;-70
2022/01/31 11:22:08;;;;;;;16.75;2.53;;;7.20;99.90;;;;;;5094224;28;20051;-69
2022/01/31 11:24:48;;;;;;;13.15;1.90;;;7.30;99.90;;;;;;5111325;28;20126;-69
2022/01/31 11:27:18;;;;;;;11.13;2.25;;;6.90;99.90;;;;;;5094321;28;20031;-70
2022/01/31 11:29:46;;;;;;;11.55;2.05;;;7.40;99.90;;;;;;5110536;28;20083;-70
2022/01/31 11:32:13;;;;;;;9.65;2.10;;;7.50;99.90;;;;;;5094298;28;20092;-69
2022/01/31 11:34:43;;;;;;;9.10;2.05;;;7.50;99.90;;;;;;5094354;28;20047;-69
2022/01/31 11:37:20;;;;;;;12.82;2.30;;;7.50;99.90;;;;;;5110831;28;20118;-69
2022/01/31 11:39:53;;;;;;;11.90;1.95;;;7.60;99.90;;;;;;5093786;28;20039;-69
2022/01/31 11:42:21;;;;;;;13.02;2.20;;;7.80;99.90;;;;;;5111037;28;20380;-70
2022/01/31 11:45:09;;;;;;;12.30;2.00;;;7.80;99.90;;;;;;5126827;27;20461;-69
2022/01/31 11:47:37;;;;;;;10.43;2.10;;;8.00;99.90;;;;;;5110691;28;20052;-70
2022/01/31 11:50:08;;;;;;;11.65;2.42;;;7.70;99.90;;;;;;5110261;28;20055;-72
2022/01/31 11:52:47;;;;;;;11.20;2.20;;;7.90;99.90;;;;;;5093465;28;20043;-69
2022/01/31 11:55:15;;;;;;;10.93;2.20;;;8.00;99.90;;;;;;5110523;28;20487;-69
2022/01/31 11:57:45;;;;;;;10.27;2.30;;;8.00;99.90;;;;;;5110184;28;20054;-70
2022/01/31 12:00:13;;;;;;;12.48;2.53;;;7.90;99.90;;;;;;5110864;28;20126;-70
2022/01/31 12:03:03;;;;;;;17.52;2.30;;;7.90;99.90;;;;;;5110100;28;20055;-70
2022/01/31 12:05:32;;;;;;;11.30;2.40;;;8.30;99.90;;;;;;5102886;28;20077;-69
2022/01/31 12:08:09;;;;;;;13.43;2.90;;;8.20;99.90;;;;;;5109864;28;20085;-70
2022/01/31 12:10:42;;;;;;;13.90;2.80;;;8.60;99.90;;;;;;5110020;28;20035;-69
2022/01/31 12:13:39;;;;;;;16.88;3.25;;;8.50;99.90;;;;;;5110545;28;20403;-70
2022/01/31 12:16:20;;;;;;;13.95;2.80;;;8.80;99.90;;;;;;5110146;28;20116;-69
2022/01/31 12:22:00;;;;;;;15.10;2.40;;;8.40;99.90;;;;;;5109872;28;20058;-70
2022/01/31 12:24:37;;;;;;;19.05;2.80;;;8.40;99.90;;;;;;5109839;28;20040;-70
2022/01/31 12:27:13;;;;;;;17.85;3.25;;;8.50;99.90;;;;;;5109950;28;20047;-70
2022/01/31 12:29:45;;;;;;;13.85;3.13;;;9.30;99.90;;;;;;5108702;28;20050;-70
2022/01/31 12:32:31;;;;;;;14.57;2.70;;;8.30;99.90;;;;;;5092868;28;20042;-70
2022/01/31 12:35:03;;;;;;;23.00;3.00;;;8.60;99.90;;;;;;5108866;28;20123;-71
2022/01/31 12:37:35;;;;;;;13.30;2.63;;;8.20;99.90;;;;;;5118788;27;20044;-70
2022/01/31 12:40:29;;;;;;;15.85;3.28;;;8.10;99.90;;;;;;5106248;28;20036;-70
2022/01/31 12:43:36;;;;;;;12.90;2.78;;;8.30;99.90;;;;;;5080168;28;20395;-70
2022/01/31 12:46:04;;;;;;;17.98;2.60;;;8.30;99.90;;;;;;5089285;28;20143;-70
2022/01/31 12:48:31;;;;;;;17.80;3.78;;;8.30;99.90;;;;;;5089053;28;20039;-70
2022/01/31 12:51:01;;;;;;;16.50;3.22;;;8.30;99.90;;;;;;5088898;28;20142;-70
2022/01/31 12:53:39;;;;;;;18.38;3.47;;;8.10;99.90;;;;;;5072538;28;20073;-70
2022/01/31 12:56:20;;;;;;;15.23;2.67;;;8.20;99.90;;;;;;5089057;28;20040;-70
2022/01/31 12:58:47;;;;;;;14.80;2.70;;;8.30;99.90;;;;;;5088797;28;20067;-70
2022/01/31 13:01:13;;;;;;;15.23;2.67;;;;;;;;;;5089111;28;20123;-70
2022/01/31 13:03:42;;;;;;;14.48;3.00;;;8.20;99.90;;;;;;5088640;28;20539;-70
2022/01/31 13:06:47;;;;;;;11.00;2.60;;;8.10;99.90;;;;;;5071826;28;20097;-70
2022/01/31 13:09:24;;;;;;;16.40;3.15;;;7.80;99.90;;;;;;5088161;28;20581;-70
2022/01/31 13:11:50;;;;;;;16.05;2.80;;;8.20;99.90;;;;;;5105474;28;20048;-70
2022/01/31 13:14:18;;;;;;;18.02;3.47;;;7.80;99.90;;;;;;5088646;28;20047;-70
2022/01/31 13:19:32;;;;;;;19.95;3.17;;;8.00;99.90;;;;;;5106305;28;20067;-70
2022/01/31 13:22:00;;;;;;;14.07;2.55;;;8.20;99.90;;;;;;5088780;28;20044;-70
2022/01/31 13:24:37;;;;;;;16.17;3.35;;;8.10;99.90;;;;;;5088983;28;20043;-70
2022/01/31 13:27:04;;;;;;;20.33;3.38;;;8.20;99.90;;;;;;5089054;28;20174;-70
2022/01/31 13:30:03;;;;;;;20.38;3.58;;;7.80;99.90;;;;;;5071983;28;20399;-70
2022/01/31 13:32:30;;;;;;;18.92;3.28;;;8.10;99.90;;;;;;5072186;28;20052;-71
2022/01/31 13:35:02;;;;;;;17.75;3.92;;;8.60;99.90;;;;;;5072141;28;20043;-72
2022/01/31 13:37:43;;;;;;;18.55;2.85;;;8.20;99.90;;;;;;5079881;28;20039;-72
2022/01/31 13:40:12;;;;;;;21.42;3.83;;;8.20;99.90;;;;;;5109271;28;20051;-72
2022/01/31 13:42:40;;;;;;;18.88;2.92;;;8.20;99.90;;;;;;5108746;28;20078;-72
2022/01/31 13:45:25;;;;;;;18.55;3.22;;;8.30;99.90;;;;;;5108741;28;20052;-72